Time;durP1;ratioP1;P1;durP2;ratioP2;P2;SDS_P1;SDS_P2;PMS_P1;PMS_P2;Temp;Humidity;BMP_temperature;BMP_pressure;BME280_temperature;BME280_humidity;BME280_pressure;Samples;Min_cycle;Max_cycle;Signal;HPM_P1;HPM_P2
2021/10/24 00:00:05;;;;;;;25.23;14.43;;;6.10;66.70;;;;;;5072479;28;20459;-75
2021/10/24 00:02:31;;;;;;;23.13;13.13;;;6.10;66.60;;;;;;5072939;28;20082;-75
2021/10/24 00:04:57;;;;;;;20.83;11.70;;;6.10;66.50;;;;;;5054952;28;20454;-75
2021/10/24 00:07:22;;;;;;;19.73;11.85;;;6.10;66.50;;;;;;5073130;28;20094;-74
2021/10/24 00:09:50;;;;;;;21.85;12.40;;;6.10;66.50;;;;;;5072602;28;20462;-74
2021/10/24 00:12:16;;;;;;;19.33;11.35;;;6.10;66.50;;;;;;5054332;28;20029;-75
2021/10/24 00:14:42;;;;;;;23.70;12.05;;;6.10;66.50;;;;;;5055085;28;20517;-74
2021/10/24 00:17:08;;;;;;;18.63;12.30;;;6.10;66.50;;;;;;5054736;28;20506;-74
2021/10/24 00:19:34;;;;;;;26.63;15.88;;;6.10;66.50;;;;;;5054759;28;20029;-74
2021/10/24 00:22:00;;;;;;;28.33;16.15;;;6.10;66.50;;;;;;5072270;28;20035;-74
2021/10/24 00:24:26;;;;;;;25.05;16.02;;;6.10;66.60;;;;;;5072640;28;20103;-74
2021/10/24 00:26:52;;;;;;;26.67;15.38;;;6.00;66.60;;;;;;5072516;28;20024;-75
2021/10/24 00:29:17;;;;;;;26.02;13.70;;;6.10;66.70;;;;;;5072523;28;20035;-73
2021/10/24 00:31:43;;;;;;;22.63;13.18;;;6.10;66.60;;;;;;5057597;28;20116;-72
2021/10/24 00:34:09;;;;;;;22.15;13.02;;;6.00;66.60;;;;;;5076145;28;20020;-75
2021/10/24 00:36:34;;;;;;;22.10;11.48;;;6.00;66.60;;;;;;5092096;28;20021;-75
2021/10/24 00:39:00;;;;;;;23.65;12.32;;;6.00;66.80;;;;;;5076139;28;20095;-75
2021/10/24 00:41:29;;;;;;;24.75;12.77;;;6.00;66.70;;;;;;5076168;28;20063;-75
2021/10/24 00:43:55;;;;;;;22.38;12.20;;;6.10;66.70;;;;;;5057957;28;20116;-74
2021/10/24 00:46:21;;;;;;;22.30;13.35;;;6.10;66.60;;;;;;5058318;28;20111;-75
2021/10/24 00:48:46;;;;;;;20.88;11.82;;;6.10;66.50;;;;;;5076363;28;20520;-74
2021/10/24 00:51:13;;;;;;;26.05;15.68;;;6.00;66.60;;;;;;5075892;28;20501;-77
2021/10/24 00:53:39;;;;;;;31.25;16.48;;;6.00;66.60;;;;;;5075976;28;20386;-74
2021/10/24 00:56:06;;;;;;;38.38;19.33;;;6.00;67.30;;;;;;5079905;28;20028;-74
2021/10/24 00:58:33;;;;;;;29.17;16.35;;;6.00;66.80;;;;;;5058597;28;20036;-75
2021/10/24 01:00:59;;;;;;;28.63;15.27;;;6.00;66.80;;;;;;5076409;28;20036;-74
2021/10/24 01:03:25;;;;;;;23.52;13.63;;;5.90;66.90;;;;;;5057803;28;20020;-74
2021/10/24 01:05:50;;;;;;;21.83;12.38;;;5.90;67.00;;;;;;5075927;28;20023;-81
2021/10/24 01:08:16;;;;;;;23.30;13.45;;;5.80;67.10;;;;;;5075173;28;20505;-71
2021/10/24 01:10:42;;;;;;;20.98;12.60;;;5.80;67.30;;;;;;5057635;28;20536;-74
2021/10/24 01:13:08;;;;;;;22.95;13.07;;;5.90;67.30;;;;;;5075796;28;20025;-75
2021/10/24 01:15:34;;;;;;;19.70;12.25;;;5.90;67.20;;;;;;5075654;28;20031;-74
2021/10/24 01:17:59;;;;;;;18.85;11.48;;;5.80;67.10;;;;;;5091158;28;20074;-74
2021/10/24 01:20:27;;;;;;;19.75;12.88;;;5.90;67.40;;;;;;5075295;28;20028;-78
2021/10/24 01:22:53;;;;;;;22.27;13.38;;;5.90;67.50;;;;;;5057451;28;20064;-80
2021/10/24 01:25:19;;;;;;;23.00;13.63;;;6.00;67.60;;;;;;5057248;28;20072;-75
2021/10/24 01:27:46;;;;;;;24.17;12.43;;;6.00;67.50;;;;;;5075580;28;20047;-75
2021/10/24 01:30:12;;;;;;;19.48;12.57;;;6.10;67.50;;;;;;5057082;28;20032;-74
2021/10/24 01:32:38;;;;;;;21.08;12.82;;;6.20;67.30;;;;;;5075437;28;20390;-75
2021/10/24 01:35:06;;;;;;;24.25;13.20;;;6.20;67.10;;;;;;5057250;28;20031;-74
2021/10/24 01:37:34;;;;;;;19.60;11.90;;;6.30;67.00;;;;;;5057151;28;20344;-75
2021/10/24 01:40:03;;;;;;;22.25;12.90;;;6.30;67.00;;;;;;5056954;28;20036;-75
2021/10/24 01:42:28;;;;;;;21.38;13.15;;;6.30;67.10;;;;;;5073845;28;20020;-75
2021/10/24 01:44:54;;;;;;;21.92;13.52;;;6.30;67.00;;;;;;5057281;28;20024;-75
2021/10/24 01:47:20;;;;;;;21.75;15.25;;;6.40;66.80;;;;;;5074880;28;20437;-76
2021/10/24 01:49:46;;;;;;;22.98;15.98;;;6.40;66.70;;;;;;5056811;28;20033;-75
2021/10/24 01:52:11;;;;;;;29.58;19.10;;;6.40;66.60;;;;;;5056534;28;20070;-81
2021/10/24 01:54:37;;;;;;;37.70;27.55;;;6.50;66.70;;;;;;5079285;28;20074;-75
2021/10/24 01:57:03;;;;;;;30.42;22.45;;;6.40;66.70;;;;;;5075229;28;20477;-75
2021/10/24 01:59:29;;;;;;;32.85;22.55;;;6.50;66.60;;;;;;5056951;28;20431;-75
2021/10/24 02:01:55;;;;;;;37.78;24.25;;;6.50;66.50;;;;;;5057068;28;20440;-74
2021/10/24 02:04:20;;;;;;;34.55;21.60;;;6.50;66.60;;;;;;5056789;28;20463;-76
2021/10/24 02:06:46;;;;;;;49.42;29.42;;;6.50;66.50;;;;;;5056419;28;20049;-76
2021/10/24 02:09:11;;;;;;;25.45;14.05;;;6.50;66.50;;;;;;5056868;28;20032;-75
2021/10/24 02:11:37;;;;;;;22.10;12.93;;;6.30;66.60;;;;;;5074902;28;20355;-76
2021/10/24 02:14:03;;;;;;;28.38;16.30;;;6.20;67.10;;;;;;5056506;28;20024;-75
2021/10/24 02:16:29;;;;;;;38.22;23.15;;;6.20;67.60;;;;;;5056616;28;20036;-74
2021/10/24 02:18:54;;;;;;;36.42;26.02;;;6.10;67.80;;;;;;5056491;28;20028;-74
2021/10/24 02:21:20;;;;;;;30.58;22.83;;;6.00;68.00;;;;;;5074276;28;20025;-75
2021/10/24 02:23:46;;;;;;;30.15;21.60;;;5.90;68.50;;;;;;5089893;28;20027;-73
2021/10/24 02:26:11;;;;;;;27.83;20.50;;;5.80;68.90;;;;;;5074453;28;20028;-81
2021/10/24 02:28:37;;;;;;;24.27;17.90;;;5.80;69.20;;;;;;5074251;28;20100;-75
2021/10/24 02:31:03;;;;;;;30.58;19.85;;;5.70;69.50;;;;;;5074174;28;20025;-75
2021/10/24 02:33:28;;;;;;;26.25;17.63;;;5.70;69.90;;;;;;5074196;28;20486;-75
2021/10/24 02:35:54;;;;;;;25.95;17.95;;;5.70;70.10;;;;;;5073924;28;20032;-74
2021/10/24 02:38:20;;;;;;;26.98;18.88;;;5.80;70.20;;;;;;5074062;28;20095;-74
2021/10/24 02:40:46;;;;;;;32.30;21.77;;;6.00;70.00;;;;;;5056005;28;20025;-75
2021/10/24 02:43:12;;;;;;;35.08;21.83;;;6.10;69.70;;;;;;5064509;28;20037;-75
2021/10/24 02:45:39;;;;;;;32.08;21.73;;;6.20;69.30;;;;;;5072738;28;20016;-68
2021/10/24 02:48:05;;;;;;;31.98;23.65;;;6.30;69.10;;;;;;5073565;28;20016;-68
2021/10/24 02:50:30;;;;;;;46.03;34.45;;;6.40;68.90;;;;;;5055553;28;20028;-69
2021/10/24 02:52:56;;;;;;;74.85;55.60;;;6.30;68.70;;;;;;5073863;28;20036;-73
2021/10/24 02:55:22;;;;;;;71.68;51.08;;;6.40;68.70;;;;;;5078578;28;20059;-69
2021/10/24 02:57:47;;;;;;;64.95;45.38;;;6.30;68.60;;;;;;5073477;28;20035;-69
2021/10/24 03:00:13;;;;;;;55.63;37.25;;;6.30;68.60;;;;;;5073481;28;20029;-69
2021/10/24 03:02:39;;;;;;;53.00;34.80;;;6.30;68.70;;;;;;5062098;28;20471;-68
2021/10/24 03:05:06;;;;;;;44.67;28.05;;;6.30;68.80;;;;;;5073104;28;20059;-69
2021/10/24 03:07:32;;;;;;;41.35;26.38;;;6.40;69.00;;;;;;5052312;28;20049;-68
2021/10/24 03:09:58;;;;;;;40.00;23.90;;;6.40;69.00;;;;;;5051999;28;20487;-68
2021/10/24 03:12:24;;;;;;;33.60;21.23;;;6.40;69.00;;;;;;5052704;28;20024;-69
2021/10/24 03:14:49;;;;;;;30.15;19.00;;;6.40;69.00;;;;;;5053348;28;20033;-67
2021/10/24 03:17:15;;;;;;;28.30;18.30;;;6.40;69.20;;;;;;5053459;28;20098;-66
2021/10/24 03:19:41;;;;;;;29.55;17.13;;;6.40;69.10;;;;;;5053201;28;20033;-72
2021/10/24 03:22:07;;;;;;;25.88;16.58;;;6.30;69.40;;;;;;5053055;28;20017;-69
2021/10/24 03:24:33;;;;;;;28.75;18.05;;;6.30;69.70;;;;;;5060254;28;20021;-68
2021/10/24 03:26:59;;;;;;;25.27;16.40;;;6.20;70.10;;;;;;5053946;28;20028;-69
2021/10/24 03:29:24;;;;;;;30.38;19.15;;;6.10;70.50;;;;;;5053149;28;20486;-68
2021/10/24 03:31:50;;;;;;;30.42;19.77;;;6.10;70.80;;;;;;5051997;28;20387;-69
2021/10/24 03:34:16;;;;;;;77.45;30.63;;;6.00;70.90;;;;;;5063516;28;20025;-68
2021/10/24 03:36:42;;;;;;;117.22;40.55;;;6.00;71.10;;;;;;5053221;28;20035;-68
2021/10/24 03:39:08;;;;;;;99.60;39.33;;;5.90;71.30;;;;;;5053019;28;20365;-68
2021/10/24 03:41:33;;;;;;;81.05;34.50;;;5.90;71.40;;;;;;5053127;28;20455;-68
2021/10/24 03:43:59;;;;;;;66.82;31.92;;;5.90;71.50;;;;;;5052627;28;20464;-67
2021/10/24 03:46:25;;;;;;;55.47;28.02;;;6.00;71.60;;;;;;5052850;28;20100;-67
2021/10/24 03:48:51;;;;;;;45.05;21.23;;;6.00;71.80;;;;;;5051517;28;20025;-69
2021/10/24 03:51:16;;;;;;;34.42;18.52;;;6.00;71.90;;;;;;5051655;28;20021;-69
2021/10/24 03:53:42;;;;;;;31.08;17.83;;;6.00;72.20;;;;;;5062051;28;20478;-69
2021/10/24 03:56:08;;;;;;;22.55;14.88;;;6.00;72.20;;;;;;5056709;28;20074;-68
2021/10/24 03:58:33;;;;;;;20.67;12.95;;;6.00;72.40;;;;;;5052823;28;20025;-68
2021/10/24 04:00:59;;;;;;;23.33;14.18;;;6.00;72.30;;;;;;5052871;28;20039;-69
2021/10/24 04:03:25;;;;;;;22.67;13.00;;;6.00;72.30;;;;;;5052496;28;20025;-69
2021/10/24 04:05:51;;;;;;;22.55;13.05;;;6.00;72.40;;;;;;5054238;28;20104;-68
2021/10/24 04:08:17;;;;;;;22.05;13.63;;;5.90;72.60;;;;;;5073918;28;20072;-69
2021/10/24 04:10:43;;;;;;;18.58;12.35;;;5.90;72.80;;;;;;5076901;28;20033;-69
2021/10/24 04:13:09;;;;;;;18.83;12.43;;;6.00;72.80;;;;;;5058729;28;20035;-67
2021/10/24 04:15:34;;;;;;;16.02;11.45;;;6.10;72.70;;;;;;5058860;28;20108;-70
2021/10/24 04:18:00;;;;;;;21.00;11.25;;;6.30;72.70;;;;;;5076373;28;20074;-69
2021/10/24 04:20:25;;;;;;;16.55;11.60;;;6.40;72.60;;;;;;5077353;28;20099;-69
2021/10/24 04:22:51;;;;;;;18.67;13.13;;;6.50;72.30;;;;;;5076705;28;20055;-69
2021/10/24 04:25:19;;;;;;;23.75;13.35;;;6.60;71.80;;;;;;5076236;28;20016;-69
2021/10/24 04:27:45;;;;;;;17.67;12.73;;;6.70;71.40;;;;;;5076588;28;20078;-69
2021/10/24 04:30:11;;;;;;;25.25;14.45;;;6.70;71.30;;;;;;5058250;28;20459;-70
2021/10/24 04:32:39;;;;;;;22.05;15.50;;;6.70;71.30;;;;;;5058313;28;20039;-68
2021/10/24 04:35:06;;;;;;;27.13;18.40;;;6.70;71.20;;;;;;5058574;28;20048;-68
2021/10/24 04:37:32;;;;;;;27.20;19.98;;;6.80;71.30;;;;;;5076340;28;20032;-70
2021/10/24 04:39:57;;;;;;;24.80;19.55;;;6.80;71.30;;;;;;5076185;28;20517;-69
2021/10/24 04:42:23;;;;;;;26.92;18.00;;;6.80;71.10;;;;;;5075947;28;20416;-68
2021/10/24 04:44:50;;;;;;;24.35;16.05;;;6.80;71.10;;;;;;5076032;28;20025;-70
2021/10/24 04:47:16;;;;;;;20.80;14.30;;;6.80;71.10;;;;;;5075836;28;20108;-68
2021/10/24 04:49:42;;;;;;;22.67;14.95;;;6.80;71.00;;;;;;5075726;28;20107;-67
2021/10/24 04:52:07;;;;;;;19.45;13.52;;;6.80;71.10;;;;;;5075932;28;20530;-67
2021/10/24 04:54:35;;;;;;;18.65;12.65;;;6.80;71.10;;;;;;5080454;28;20105;-72
2021/10/24 04:57:01;;;;;;;18.42;13.73;;;6.90;71.10;;;;;;5091639;28;20035;-66
2021/10/24 04:59:27;;;;;;;22.80;13.43;;;6.90;71.20;;;;;;5057722;28;20024;-67
2021/10/24 05:01:53;;;;;;;21.10;12.93;;;6.90;71.20;;;;;;5091499;28;20363;-71
2021/10/24 05:04:19;;;;;;;20.75;12.98;;;6.90;71.10;;;;;;5091084;28;20032;-69
2021/10/24 05:06:45;;;;;;;22.35;12.48;;;6.90;71.10;;;;;;5057533;28;20049;-68
2021/10/24 05:09:11;;;;;;;20.65;12.60;;;7.00;71.30;;;;;;5075794;28;20456;-68
2021/10/24 05:11:36;;;;;;;23.77;12.55;;;7.00;71.40;;;;;;5075495;28;20074;-68
2021/10/24 05:14:04;;;;;;;20.42;12.75;;;7.00;71.50;;;;;;5075522;28;20082;-67
2021/10/24 05:16:30;;;;;;;23.63;13.77;;;7.10;71.50;;;;;;5075106;28;20028;-67
2021/10/24 05:18:56;;;;;;;20.92;12.32;;;7.10;71.30;;;;;;5075370;28;20501;-68
2021/10/24 05:21:21;;;;;;;21.10;12.48;;;7.00;71.20;;;;;;5075618;28;20029;-69
2021/10/24 05:23:47;;;;;;;20.73;11.50;;;7.00;71.60;;;;;;5075401;28;20425;-69
2021/10/24 05:26:13;;;;;;;21.73;12.48;;;7.00;72.00;;;;;;5057348;28;20091;-66
2021/10/24 05:28:38;;;;;;;23.02;13.05;;;6.90;72.10;;;;;;5059642;28;20023;-67
2021/10/24 05:31:04;;;;;;;20.10;13.40;;;6.90;72.00;;;;;;5075057;28;20070;-69
2021/10/24 05:33:30;;;;;;;21.20;14.70;;;6.90;72.20;;;;;;5075615;28;20490;-68
2021/10/24 05:35:56;;;;;;;19.65;14.80;;;7.00;72.20;;;;;;5075409;28;20037;-69
2021/10/24 05:38:22;;;;;;;21.80;14.45;;;7.00;72.10;;;;;;5057280;28;20067;-72
2021/10/24 05:40:49;;;;;;;21.40;13.38;;;7.00;72.10;;;;;;5090653;28;20111;-69
2021/10/24 05:43:16;;;;;;;19.33;12.43;;;7.00;72.30;;;;;;5075183;28;20021;-68
2021/10/24 05:45:44;;;;;;;19.30;11.73;;;7.00;72.30;;;;;;5056854;28;20025;-69
2021/10/24 05:48:11;;;;;;;18.35;11.07;;;7.10;72.40;;;;;;5060107;28;20044;-70
2021/10/24 05:50:37;;;;;;;17.63;12.18;;;7.20;72.30;;;;;;5057012;28;20077;-71
2021/10/24 05:53:03;;;;;;;17.90;12.20;;;7.30;72.20;;;;;;5058228;28;20471;-73
2021/10/24 05:55:29;;;;;;;18.38;11.93;;;7.40;72.00;;;;;;5079526;28;20031;-70
2021/10/24 05:58:42;;;;;;;18.38;12.52;;;7.50;72.40;;;;;;5061474;27;20401;-68
2021/10/24 06:01:08;;;;;;;19.85;13.35;;;7.60;71.50;;;;;;5049166;28;20057;-70
2021/10/24 06:03:34;;;;;;;19.55;12.45;;;7.80;71.40;;;;;;5049117;28;20025;-68
2021/10/24 06:06:00;;;;;;;20.30;13.45;;;7.90;72.00;;;;;;5048839;28;20095;-70
2021/10/24 06:08:27;;;;;;;25.02;14.20;;;8.00;71.00;;;;;;5048757;28;20025;-69
2021/10/24 06:10:55;;;;;;;23.85;14.35;;;8.00;70.70;;;;;;5049116;28;20029;-67
2021/10/24 06:13:22;;;;;;;25.10;15.70;;;8.10;70.70;;;;;;5049947;28;20460;-70
2021/10/24 06:15:48;;;;;;;24.02;15.57;;;8.10;70.70;;;;;;5048913;28;20025;-70
2021/10/24 06:18:15;;;;;;;24.33;15.00;;;8.20;70.70;;;;;;5049709;28;20026;-68
2021/10/24 06:20:41;;;;;;;22.88;13.93;;;8.30;70.50;;;;;;5050059;28;20033;-68
2021/10/24 06:23:07;;;;;;;21.30;12.40;;;8.40;70.50;;;;;;5049659;28;20060;-69
2021/10/24 06:25:33;;;;;;;17.63;11.82;;;8.50;70.30;;;;;;5048757;28;20026;-69
2021/10/24 06:27:59;;;;;;;19.60;11.80;;;8.60;70.00;;;;;;5049709;28;20494;-69
2021/10/24 06:30:25;;;;;;;19.80;12.23;;;8.70;69.80;;;;;;5048391;28;20379;-68
2021/10/24 06:32:52;;;;;;;23.05;12.75;;;8.80;69.90;;;;;;5048741;28;20055;-73
2021/10/24 06:35:18;;;;;;;20.23;12.68;;;8.80;69.90;;;;;;5048419;28;20033;-69
2021/10/24 06:37:46;;;;;;;19.42;11.27;;;9.00;69.70;;;;;;5048297;28;20029;-69
2021/10/24 06:40:14;;;;;;;17.38;10.60;;;9.10;69.50;;;;;;5048200;28;20415;-69
2021/10/24 06:42:40;;;;;;;15.63;9.52;;;9.30;69.40;;;;;;5048807;28;20116;-69
2021/10/24 06:45:07;;;;;;;15.60;8.52;;;9.40;69.10;;;;;;5049908;28;20490;-69
2021/10/24 06:47:37;;;;;;;14.98;9.70;;;9.60;68.80;;;;;;5049361;28;20053;-73
2021/10/24 06:50:04;;;;;;;16.42;8.88;;;9.80;68.40;;;;;;5049149;28;20068;-69
2021/10/24 06:52:29;;;;;;;13.65;8.70;;;10.00;68.00;;;;;;5049563;28;20052;-69
2021/10/24 06:54:55;;;;;;;12.65;7.90;;;10.10;67.90;;;;;;5034330;28;20022;-70
2021/10/24 06:57:21;;;;;;;15.98;7.88;;;10.30;67.50;;;;;;5048904;28;20057;-69
2021/10/24 06:59:48;;;;;;;17.25;8.57;;;10.50;67.10;;;;;;5047786;28;20373;-68
2021/10/24 07:02:14;;;;;;;13.63;7.95;;;10.60;66.80;;;;;;5047637;28;20059;-69
2021/10/24 07:04:39;;;;;;;15.38;8.75;;;10.80;66.60;;;;;;5048724;28;20057;-69
2021/10/24 07:07:05;;;;;;;16.52;9.57;;;10.90;66.30;;;;;;5049041;28;20025;-70
2021/10/24 07:09:31;;;;;;;14.88;7.53;;;11.20;66.00;;;;;;5037398;28;20026;-66
2021/10/24 07:11:58;;;;;;;13.63;7.88;;;11.50;65.60;;;;;;5035617;28;20053;-68
2021/10/24 07:14:23;;;;;;;13.10;7.50;;;11.80;64.80;;;;;;5035554;28;20064;-68
2021/10/24 07:16:49;;;;;;;19.20;7.95;;;12.10;64.10;;;;;;5035336;28;20061;-70
2021/10/24 07:19:15;;;;;;;13.50;7.97;;;12.20;63.20;;;;;;5035521;28;20036;-70
2021/10/24 07:21:41;;;;;;;9.93;6.45;;;12.20;62.80;;;;;;5035676;28;20025;-70
2021/10/24 07:24:06;;;;;;;11.80;6.60;;;12.10;62.90;;;;;;5035238;28;20030;-70
2021/10/24 07:26:32;;;;;;;11.32;7.20;;;12.10;62.90;;;;;;5034051;28;20053;-68
2021/10/24 07:28:59;;;;;;;15.00;7.05;;;12.10;62.70;;;;;;5035205;28;20021;-69
2021/10/24 07:31:25;;;;;;;11.35;6.80;;;12.30;63.00;;;;;;5035704;28;20048;-69
2021/10/24 07:33:52;;;;;;;11.23;6.85;;;12.60;62.50;;;;;;5033766;28;20478;-72
2021/10/24 07:36:17;;;;;;;10.77;6.70;;;13.00;61.90;;;;;;5033710;28;20506;-70
2021/10/24 07:38:43;;;;;;;12.30;6.60;;;13.30;60.90;;;;;;5035148;28;20034;-69
2021/10/24 07:41:09;;;;;;;12.10;6.03;;;13.40;59.90;;;;;;5035321;28;20041;-69
2021/10/24 07:43:34;;;;;;;11.25;6.32;;;13.30;59.50;;;;;;5035053;28;20418;-70
2021/10/24 07:46:00;;;;;;;12.88;6.72;;;13.20;59.70;;;;;;5034846;28;20018;-70
2021/10/24 07:48:26;;;;;;;13.00;7.63;;;13.10;59.60;;;;;;5035002;28;20026;-69
2021/10/24 07:50:52;;;;;;;10.52;7.15;;;13.00;60.00;;;;;;5035137;28;20112;-69
2021/10/24 07:53:19;;;;;;;11.38;6.65;;;13.10;60.10;;;;;;5035517;28;20104;-69
2021/10/24 07:55:45;;;;;;;11.07;6.10;;;13.10;59.80;;;;;;5035016;28;20021;-69
2021/10/24 07:58:10;;;;;;;12.85;7.07;;;13.00;59.80;;;;;;5032797;28;20108;-69
2021/10/24 08:00:36;;;;;;;11.00;6.60;;;12.90;60.10;;;;;;5034788;28;20025;-67
2021/10/24 08:03:08;;;;;;;12.32;7.22;;;12.70;59.90;;;;;;5034513;28;20104;-67
2021/10/24 08:05:35;;;;;;;11.18;6.55;;;12.50;60.20;;;;;;5035007;28;20026;-69
2021/10/24 08:08:01;;;;;;;12.35;7.15;;;12.30;60.50;;;;;;5033126;28;20036;-68
2021/10/24 08:10:27;;;;;;;11.15;6.63;;;12.20;60.80;;;;;;5033513;28;20017;-66
2021/10/24 08:12:53;;;;;;;13.77;6.97;;;11.90;61.30;;;;;;5034707;28;20037;-67
2021/10/24 08:15:19;;;;;;;11.13;6.85;;;11.70;62.10;;;;;;5034415;28;20025;-72
2021/10/24 08:17:47;;;;;;;10.25;6.75;;;11.60;62.60;;;;;;5034237;28;20040;-73
2021/10/24 08:20:14;;;;;;;10.10;6.65;;;11.50;62.90;;;;;;5033134;28;20418;-71
2021/10/24 08:22:39;;;;;;;16.45;7.05;;;11.40;63.70;;;;;;5034419;28;20053;-70
2021/10/24 08:25:06;;;;;;;11.88;6.80;;;11.30;63.40;;;;;;5034455;28;20025;-67
2021/10/24 08:27:32;;;;;;;10.32;6.85;;;11.30;63.60;;;;;;5034742;28;20045;-69
2021/10/24 08:29:59;;;;;;;12.52;6.85;;;11.40;63.60;;;;;;5032534;28;20116;-69
2021/10/24 08:32:25;;;;;;;12.90;7.38;;;11.30;63.90;;;;;;5034243;28;20464;-69
2021/10/24 08:34:51;;;;;;;13.07;7.10;;;11.40;63.90;;;;;;5032967;28;20033;-70
2021/10/24 08:37:19;;;;;;;10.65;7.32;;;11.40;63.90;;;;;;5034061;28;20100;-69
2021/10/24 08:39:48;;;;;;;9.70;6.90;;;11.30;64.10;;;;;;5034097;28;20026;-70
2021/10/24 08:42:16;;;;;;;11.73;7.10;;;11.20;64.30;;;;;;5033823;28;20418;-70
2021/10/24 08:44:42;;;;;;;11.85;7.35;;;11.20;64.40;;;;;;5033890;28;20053;-69
2021/10/24 08:47:08;;;;;;;11.63;7.43;;;11.20;64.60;;;;;;5033738;28;20030;-69
2021/10/24 08:49:34;;;;;;;13.52;8.00;;;11.20;64.60;;;;;;5033830;28;20027;-69
2021/10/24 08:52:02;;;;;;;13.20;7.97;;;11.30;64.70;;;;;;5033772;28;20397;-69
2021/10/24 08:54:28;;;;;;;11.43;7.45;;;11.30;64.60;;;;;;5027729;28;20032;-70
2021/10/24 08:56:55;;;;;;;13.27;7.53;;;11.40;64.30;;;;;;5033594;28;20480;-68
2021/10/24 08:59:21;;;;;;;10.98;7.18;;;11.40;64.10;;;;;;5033326;28;20045;-68
2021/10/24 09:01:55;;;;;;;12.77;7.50;;;11.50;64.30;;;;;;5033911;28;20467;-69
2021/10/24 09:04:21;;;;;;;11.05;7.82;;;11.50;64.10;;;;;;5033827;28;20030;-70
2021/10/24 09:06:50;;;;;;;11.20;7.22;;;11.70;64.00;;;;;;5033573;28;20033;-69
2021/10/24 09:09:16;;;;;;;10.45;6.88;;;11.80;63.80;;;;;;5032307;28;20021;-70
2021/10/24 09:11:50;;;;;;;10.77;6.60;;;11.90;63.60;;;;;;5031860;28;20117;-69
2021/10/24 09:14:35;;;;;;;12.48;7.30;;;12.10;63.20;;;;;;5033605;28;20384;-67
2021/10/24 09:17:01;;;;;;;14.80;7.30;;;12.10;62.90;;;;;;5033310;28;20037;-68
2021/10/24 09:19:35;;;;;;;11.48;6.97;;;12.10;63.00;;;;;;5031970;28;20029;-69
2021/10/24 09:22:21;;;;;;;10.57;6.97;;;12.00;62.70;;;;;;5031812;28;20494;-68
2021/10/24 09:25:04;;;;;;;10.75;7.38;;;11.90;62.80;;;;;;5032207;28;20414;-68
2021/10/24 09:27:38;;;;;;;13.05;7.82;;;11.90;63.10;;;;;;5033475;28;20483;-72
2021/10/24 09:30:30;;;;;;;11.88;7.60;;;11.80;63.20;;;;;;5032886;28;20079;-67
2021/10/24 09:33:05;;;;;;;10.02;6.80;;;11.70;63.40;;;;;;5031932;28;20025;-67
2021/10/24 09:35:30;;;;;;;16.63;7.65;;;11.70;63.30;;;;;;5033139;28;20333;-68
2021/10/24 09:37:58;;;;;;;11.45;7.45;;;11.70;63.50;;;;;;5032936;28;20044;-67
2021/10/24 09:40:28;;;;;;;14.02;8.57;;;11.70;63.80;;;;;;5031645;28;20041;-68
2021/10/24 09:43:18;;;;;;;11.20;7.50;;;11.80;63.60;;;;;;5033119;28;20529;-68
2021/10/24 09:45:49;;;;;;;13.73;8.43;;;11.80;63.50;;;;;;5031493;28;20104;-67
2021/10/24 09:48:18;;;;;;;15.00;8.60;;;11.90;63.30;;;;;;5031629;28;20378;-70
2021/10/24 09:50:52;;;;;;;11.45;7.68;;;11.90;63.00;;;;;;5033097;28;20029;-67
2021/10/24 09:53:27;;;;;;;11.85;6.93;;;12.00;62.90;;;;;;5019803;28;20100;-71
2021/10/24 09:55:53;;;;;;;13.15;7.50;;;11.90;62.60;;;;;;5033076;28;20026;-68
2021/10/24 09:58:26;;;;;;;11.00;6.80;;;11.80;62.60;;;;;;5032515;28;20061;-70
2021/10/24 10:00:52;;;;;;;10.55;6.25;;;11.70;62.90;;;;;;5033153;28;20029;-68
2021/10/24 10:03:21;;;;;;;10.68;7.20;;;11.60;63.00;;;;;;5031463;28;20032;-70
2021/10/24 10:05:47;;;;;;;9.45;6.22;;;11.50;63.20;;;;;;5031571;28;20057;-69
2021/10/24 10:08:18;;;;;;;11.65;6.22;;;11.50;63.40;;;;;;5032236;28;20076;-68
2021/10/24 10:10:54;;;;;;;10.68;6.93;;;11.50;63.40;;;;;;5033037;28;20037;-70
2021/10/24 10:13:24;;;;;;;10.07;7.03;;;11.50;63.30;;;;;;5032606;28;20040;-69
2021/10/24 10:15:50;;;;;;;13.10;6.95;;;11.50;63.70;;;;;;5032746;28;20029;-69
2021/10/24 10:18:17;;;;;;;10.55;7.22;;;11.50;63.50;;;;;;5030969;28;20073;-69
2021/10/24 10:20:51;;;;;;;9.13;6.57;;;11.50;63.40;;;;;;5031371;28;20045;-69
2021/10/24 10:23:22;;;;;;;10.30;6.95;;;11.50;63.60;;;;;;5032747;28;20022;-69
2021/10/24 10:25:49;;;;;;;11.57;7.10;;;11.40;63.50;;;;;;5033179;28;20464;-71
2021/10/24 10:28:34;;;;;;;10.80;6.32;;;11.40;63.50;;;;;;5032369;28;20025;-70
2021/10/24 10:31:15;;;;;;;10.73;7.15;;;11.30;63.30;;;;;;5032493;28;20101;-67
2021/10/24 10:33:55;;;;;;;9.77;6.63;;;11.10;63.40;;;;;;5032574;28;20365;-70
2021/10/24 10:36:20;;;;;;;15.10;7.30;;;10.90;63.80;;;;;;5032990;28;20029;-69
2021/10/24 10:38:46;;;;;;;16.02;7.50;;;10.80;64.40;;;;;;5032531;28;20029;-68
2021/10/24 10:41:14;;;;;;;10.65;5.47;;;10.70;65.00;;;;;;5032493;28;20123;-68
2021/10/24 10:44:00;;;;;;;8.52;5.03;;;10.60;65.50;;;;;;5033271;28;20029;-68
2021/10/24 10:46:30;;;;;;;9.63;4.28;;;10.40;65.90;;;;;;5035957;28;20434;-69
2021/10/24 10:49:21;;;;;;;7.47;4.40;;;10.30;66.80;;;;;;5036400;28;20022;-66
2021/10/24 10:51:48;;;;;;;6.55;4.18;;;10.20;67.60;;;;;;5024143;28;20029;-68
2021/10/24 10:54:14;;;;;;;5.45;3.70;;;10.10;68.10;;;;;;5035520;28;20045;-69
2021/10/24 10:56:44;;;;;;;6.45;3.97;;;10.00;68.70;;;;;;5036352;28;20099;-68
2021/10/24 10:59:33;;;;;;;6.53;3.90;;;10.00;69.30;;;;;;5034813;28;20026;-69
2021/10/24 11:02:28;;;;;;;9.20;4.28;;;10.00;69.80;;;;;;5035488;28;20025;-68
2021/10/24 11:04:57;;;;;;;8.32;4.80;;;10.10;70.00;;;;;;5035786;28;20104;-67
2021/10/24 11:07:41;;;;;;;6.53;3.72;;;10.10;69.80;;;;;;5034787;28;20037;-68
2021/10/24 11:10:16;;;;;;;6.85;4.75;;;10.30;69.40;;;;;;5035559;28;20044;-71
2021/10/24 11:12:44;;;;;;;7.35;4.38;;;10.40;68.90;;;;;;5035803;28;20025;-68
2021/10/24 11:15:17;;;;;;;7.32;4.30;;;10.50;68.50;;;;;;5035753;28;20018;-71
2021/10/24 11:17:48;;;;;;;9.32;3.92;;;10.60;68.10;;;;;;5034818;28;20034;-69
2021/10/24 11:20:26;;;;;;;7.65;4.13;;;10.80;67.80;;;;;;5035341;28;20037;-71
2021/10/24 11:23:05;;;;;;;6.43;3.75;;;11.00;67.60;;;;;;5034465;28;20026;-67
2021/10/24 11:25:36;;;;;;;6.55;4.40;;;11.10;66.70;;;;;;5034329;28;20426;-67
2021/10/24 11:28:06;;;;;;;9.07;4.43;;;11.30;66.50;;;;;;5035525;28;20069;-69
2021/10/24 11:30:32;;;;;;;10.85;4.63;;;11.50;65.60;;;;;;5035446;28;20049;-70
2021/10/24 11:32:59;;;;;;;6.78;4.28;;;11.70;65.00;;;;;;5035314;28;20425;-69
2021/10/24 11:35:25;;;;;;;7.45;4.78;;;11.60;64.30;;;;;;5035073;28;20021;-69
2021/10/24 11:37:54;;;;;;;10.40;4.20;;;11.60;64.10;;;;;;5035520;28;20030;-70
2021/10/24 11:40:29;;;;;;;4.97;3.47;;;11.50;63.90;;;;;;5035121;28;20030;-69
2021/10/24 11:43:18;;;;;;;5.13;2.53;;;11.30;63.50;;;;;;5034380;28;20022;-69
2021/10/24 11:46:00;;;;;;;3.97;2.15;;;11.00;63.10;;;;;;5033480;28;20025;-67
2021/10/24 11:48:28;;;;;;;3.13;2.00;;;10.80;62.80;;;;;;5035422;28;20021;-70
2021/10/24 11:50:56;;;;;;;4.90;2.10;;;10.60;62.90;;;;;;5033728;28;20025;-69
2021/10/24 11:53:34;;;;;;;3.85;2.20;;;10.50;62.60;;;;;;5035222;28;20029;-68
2021/10/24 11:56:06;;;;;;;3.40;1.90;;;10.40;62.50;;;;;;5034472;28;20104;-68
2021/10/24 12:01:24;;;;;;;3.17;1.77;;;10.40;62.30;;;;;;5034913;28;20079;-69
2021/10/24 12:04:05;;;;;;;3.90;2.20;;;10.40;62.00;;;;;;5035230;28;20034;-73
2021/10/24 12:06:57;;;;;;;5.82;2.90;;;10.50;62.00;;;;;;5034791;28;20018;-67
2021/10/24 12:09:39;;;;;;;5.53;3.40;;;10.50;61.80;;;;;;5035099;28;20064;-69
2021/10/24 12:12:23;;;;;;;4.53;2.60;;;10.50;62.10;;;;;;5021899;28;20491;-69
2021/10/24 12:15:02;;;;;;;3.95;2.30;;;10.60;62.00;;;;;;5032928;28;20026;-68
2021/10/24 12:17:39;;;;;;;5.35;3.00;;;10.60;61.80;;;;;;5033313;28;20040;-68
2021/10/24 12:20:25;;;;;;;3.90;2.20;;;10.60;61.90;;;;;;5034162;28;20029;-69
2021/10/24 12:23:03;;;;;;;6.75;2.53;;;10.60;62.30;;;;;;5034679;28;20064;-71
2021/10/24 12:25:44;;;;;;;5.03;3.00;;;10.60;61.70;;;;;;5034133;28;20075;-69
2021/10/24 12:28:28;;;;;;;6.22;3.05;;;10.70;61.60;;;;;;5034347;28;20055;-69
2021/10/24 12:31:21;;;;;;;4.80;3.05;;;10.80;61.80;;;;;;5022660;28;20022;-69
2021/10/24 12:33:47;;;;;;;5.63;3.85;;;10.80;61.90;;;;;;5032689;28;20025;-68
2021/10/24 12:36:33;;;;;;;7.50;4.00;;;10.90;62.00;;;;;;5033923;28;20109;-68
2021/10/24 12:39:00;;;;;;;;;;;10.90;62.30;;;;;;5034382;28;20022;-67
2021/10/24 12:41:38;;;;;;;5.90;2.80;;;10.90;62.10;;;;;;5034014;28;19995;-69
2021/10/24 12:44:08;;;;;;;5.85;3.20;;;10.90;63.00;;;;;;5032263;28;20017;-69
2021/10/24 12:46:37;;;;;;;7.13;3.17;;;10.80;62.70;;;;;;5034136;28;20486;-68